One Hundred Palms, California
Current Conditions -  °F | °C
As of 1:56 AM on Saturday 25 Oct 2014 (Local Time) from KNJK Reporting Station
Clear Clear  
Wind Chill: 72°   Ceiling: Unl
Heat Index: 72°   Visibility: 10mi
Dew Point: 43°   Wind: 7mph
Humidity: 35%   Direction: 320°NW
Pressure: 29.92"   Gusts: NA
Location:  33.093°N, 116.06°W
Report Text: KNJK 250856Z AUTO 32006KT 10SM CLR 22/06 A2992 RMK AO2 SLP147 T02220061 52003
Loading
Personal Weather Stations






























Interactive Weather Map
Tropical Storm Tracking
New forecast layout! Learn more

10-Day Weather Forecast

Advertisements
Track Severe Weather on mobile